Informes METAR

LERS - Reus (civ/Mil), Spain
Distancia desde la estación: O 7km
Actualizado: 24/01/2019 09:00
Despejado
Despejado
 Viento del NNO
Viento: NNO 35 km/h, Racha: 57 km/h
Temperatura: 8°C
Wind Chill: 3°C
Rocío: -10°C
Humedad: 27%
Barómetro: 1003 hPa
Resumen: Despejado
Visibilidad: greater than 10 km
2019/01/24 08:00 LERS 240800Z 33019G31KT 280V360 CAVOK 08/M10 Q1003
LEBL - Barcelona Airpor, Spain
Distancia desde la estación: ENE 70km
Actualizado: 24/01/2019 09:00
Despejado
Despejado
 Viento del NNO
Viento: NNO 37 km/h, Racha: 61 km/h
Temperatura: 7°C
Wind Chill: 2°C
Rocío: -8°C
Humedad: 34%
Barómetro: 1001 hPa
Resumen: Despejado
Visibilidad: greater than 10 km
2019/01/24 08:00 LEBL 240800Z 33020G33KT 300V010 CAVOK 07/M08 Q1001 NOSIG
 
LELL - Sabadell, Spain
Distancia desde la estación: ENE 83km
Actualizado: 24/01/2019 09:00
Despejado
Despejado
 Viento del varia
Viento: varia 9 km/h
Temperatura: 6°C
Wind Chill: 4°C
Rocío: -7°C
Humedad: 39%
Barómetro: 1002 hPa
Resumen: Despejado
Visibilidad: greater than 10 km
2019/01/24 08:00 LELL 240800Z VRB05KT CAVOK 06/M07 Q1002
LEDA - Lleida/Alguaire, Spain
Distancia desde la estación: NO 90km
Actualizado: 24/01/2019 09:00
Poco nuboso
Poco nuboso
 Viento del ONO
Viento: ONO 31 km/h
Temperatura: 3°C
Wind Chill: -3°C
Rocío: -7°C
Humedad: 48%
Barómetro: 1006 hPa
Nubes: Poco nuboso
Visibilidad: 10 km
Detalles de la nube: Poco nuboso 457 m
2019/01/24 08:00 LEDA 240800Z 29017KT 9999 FEW015 03/M07 Q1006
 
LESU - Pirineus/La Seu, Spain
Distancia desde la estación: N 134km
Actualizado: 21/01/2019 17:00
NO METAR ACTUAL
Poco nuboso
Poco nuboso
 Viento del NO
Viento: NO 15 km/h
Temperatura: 6°C
Wind Chill: 3°C
Rocío: -9°C
Humedad: 34%
Barómetro: 1015 hPa
Nubes: Poco nuboso
Visibilidad: 10 km
Detalles de la nube: Poco nuboso 2073 m
2019/01/21 16:00 LESU 211600Z 32008KT 270V360 9999 FEW068 06/M09 Q1015
LEGE - Gerona/Costa Bra, Spain
Distancia desde la estación: NE 152km
Actualizado: 24/01/2019 09:00
Despejado
Despejado
 Viento del N
Viento: N 15 km/h
Temperatura: 6°C
Wind Chill: 3°C
Rocío: -11°C
Humedad: 29%
Barómetro: 1000 hPa
Resumen: Despejado
Visibilidad: greater than 10 km
2019/01/24 08:00 LEGE 240800Z 01008KT 300V070 CAVOK 06/M11 Q1000
 
LEHC - Huesca-Pirineos, Spain
Distancia desde la estación: NO 168km
Actualizado: 24/01/2019 09:00
Despejado
Despejado
 Viento del O
Viento: O 20 km/h
Temperatura: 1°C
Wind Chill: -4°C
Rocío: -7°C
Humedad: 56%
Barómetro: 1007 hPa
Resumen: Despejado
Visibilidad: greater than 10 km
2019/01/24 08:00 LEHC 240800Z 26011KT CAVOK 01/M07 Q1007
LEZG - Zaragoza (mil/Ci, Spain
Distancia desde la estación: ONO 198km
Actualizado: 24/01/2019 09:00
Parcialmente nuboso
Parcialmente nuboso
 Viento del ONO
Viento: ONO 20 km/h
Temperatura: 5°C
Wind Chill: 1°C
Rocío: 2°C
Humedad: 81%
Barómetro: 1011 hPa
Nubes: Parcialmente nuboso
Visibilidad: 10 km
Detalles de la nube: Parcialmente nuboso 1829 m
2019/01/24 08:00 LEZG 240800Z 30011KT 9999 SCT060 05/02 Q1011
 
LECH - Calamocha, Spain
Distancia desde la estación: O 216km
Actualizado: 24/01/2019 09:00
Despejado
Despejado
 Viento del NNO
Viento: NNO 37 km/h, Racha: 61 km/h
Temperatura: 7°C
Wind Chill: 2°C
Rocío: -3°C
Humedad: 49%
Barómetro: 1006 hPa
Resumen: Despejado
Visibilidad: greater than 10 km
2019/01/24 08:00 LECH 240800Z AUTO 34020G33KT 300V040 CAVOK 07/M03 Q1006
LEPA - Palma De Mallorc, Spain
Distancia desde la estación: SE 217km
Actualizado: 24/01/2019 09:00
Parcialmente nuboso
Parcialmente nuboso
 Viento del N
Viento: N 33 km/h, Racha: 54 km/h
Temperatura: 9°C
Wind Chill: 5°C
Rocío: -5°C
Humedad: 37%
Barómetro: 1001 hPa
Nubes: Parcialmente nuboso
Visibilidad: 10 km
Detalles de la nube: Poco nuboso 914 m
Parcialmente nuboso 1981 m
2019/01/24 08:00 LEPA 240800Z 35018G29KT 320V020 9999 FEW030 SCT065 09/M05 Q1001 NOSIG
 
LFMP - Perpignan/Rivesa, France
Distancia desde la estación: NE 222km
Actualizado: 24/01/2019 09:00
Despejado
Despejado
 Viento del ONO
Viento: ONO 57 km/h, Racha: 81 km/h
Temperatura: 4°C
Wind Chill: -3°C
Rocío: -5°C
Humedad: 52%
Barómetro: 1004 hPa
Resumen: Despejado
Visibilidad: greater than 10 km
2019/01/24 08:00 LFMP 240800Z AUTO 30031G44KT CAVOK 04/M05 Q1004 NOSIG
LEVC - Valencia (civ/Mi, Spain
Distancia desde la estación: SO 232km
Actualizado: 24/01/2019 09:00
Parcialmente nuboso
Parcialmente nuboso
 Viento del NNO
Viento: NNO 26 km/h, Racha: 44 km/h
Temperatura: 13°C
Rocío: 1°C
Humedad: 44%
Barómetro: 1006 hPa
Nubes: Parcialmente nuboso
Visibilidad: 10 km
Detalles de la nube: Parcialmente nuboso 1219 m
2019/01/24 08:00 LEVC 240800Z 34014G24KT 300V010 9999 SCT040 13/01 Q1006 NOSIG
 
LFMK - Carcassonne/Salv, France
Distancia desde la estación: NNE 248km
Actualizado: 24/01/2019 09:00
Cubierto
Cubierto
 Viento del O
Viento: O 31 km/h
Temperatura: 2°C
Wind Chill: -4°C
Rocío: -3°C
Humedad: 70%
Barómetro: 1008 hPa
Nubes: Cubierto
Visibilidad: 10 km
Detalles de la nube: Cubierto 975 m
2019/01/24 08:00 LFMK 240800Z AUTO 27017KT 9999 OVC032 02/M03 Q1008 TEMPO 30020G35KT RA
LFBT - Tarbes/Ossun, France
Distancia desde la estación: NNO 249km
Actualizado: 24/01/2019 09:00
Cubierto
Cubierto
 Viento del O
Viento: O 11 km/h
Temperatura: 1°C
Wind Chill: -2°C
Rocío: -1°C
Humedad: 87%
Barómetro: 1012 hPa
Nubes: Cubierto
Visibilidad: 10 km
Detalles de la nube: Muy nuboso 975 m
Cubierto 1158 m
2019/01/24 08:00 LFBT 240800Z AUTO 26006KT 220V330 9999 BKN032 OVC038 01/M01 Q1012 NOSIG
 
LEIB - Ibiza/Es Codola, Spain
Distancia desde la estación: S 252km
Actualizado: 24/01/2019 09:00
Poco nuboso
Poco nuboso
 Viento del N
Viento: N 39 km/h, Racha: 61 km/h
Temperatura: 11°C
Rocío: -1°C
Humedad: 44%
Barómetro: 1003 hPa
Nubes: Poco nuboso
Visibilidad: 10 km
Detalles de la nube: Poco nuboso 1250 m
2019/01/24 08:00 LEIB 240800Z 35021G33KT 300V020 9999 FEW041 11/M01 Q1003 NOSIG
LFBO - Toulouse/Blagnac, France
Distancia desde la estación: N 277km
Actualizado: 24/01/2019 09:00
Cubierto
Cubierto
 Viento del O
Viento: O 24 km/h
Temperatura: 1°C
Wind Chill: -4°C
Rocío: -2°C
Humedad: 81%
Barómetro: 1011 hPa
Nubes: Cubierto
Visibilidad: 10 km
Detalles de la nube: Cubierto 975 m
2019/01/24 08:00 LFBO 240800Z AUTO 28013KT 9999 OVC032 01/M02 Q1011 TEMPO BKN012
 
LFCK - Castres-Mazamet, France
Distancia desde la estación: NNE 282km
Actualizado: 24/01/2019 09:00
Cubierto
Cubierto
 Viento del O
Viento: O 30 km/h
Temperatura: 0°C
Wind Chill: -6°C
Rocío: -3°C
Humedad: 80%
Barómetro: 1009 hPa
Nubes: Cubierto
Visibilidad: 10 km
Detalles de la nube: Cubierto 975 m
2019/01/24 08:00 LFCK 240800Z AUTO 28016KT 9999 OVC032 00/M03 Q1009 TEMPO BKN012
LFBP - Pont-Long-Uzein/, France
Distancia desde la estación: NNO 284km
Actualizado: 24/01/2019 09:00
Despejado
Despejado
 Viento del varia
Viento: varia 6 km/h
Temperatura: 1°C
Rocío: -1°C
Humedad: 87%
Barómetro: 1013 hPa
Resumen: Despejado
Visibilidad: greater than 10 km
2019/01/24 08:00 LFBP 240800Z AUTO VRB03KT CAVOK 01/M01 Q1013 NOSIG
 
LEMH - Mahon/Menorca Is, Spain
Distancia desde la estación: ESE 288km
Actualizado: 24/01/2019 09:00
Lluvia débil, Muy nuboso
Lluvia débil, Muy nuboso
 Viento del N
Viento: N 39 km/h, Racha: 65 km/h
Temperatura: 6°C
Wind Chill: 1°C
Rocío: 0°C
Humedad: 66%
Barómetro: 997 hPa
Resumen: Lluvia débil
Nubes: Muy nuboso
Visibilidad: 10 km
Detalles de la nube: Parcialmente nuboso 1067 m
Muy nuboso 1372 m
2019/01/24 08:00 LEMH 240800Z 35021G35KT 290V020 9999 -RA SCT035 BKN045 06/M00 Q0997
LFMU - Beziers/Vias, France
Distancia desde la estación: NE 299km
Actualizado: 24/01/2019 09:00
Despejado
Despejado
 Viento del NO
Viento: NO 24 km/h
Temperatura: 3°C
Wind Chill: -2°C
Rocío: -5°C
Humedad: 56%
Barómetro: 1005 hPa
Resumen: Despejado
Visibilidad: greater than 10 km
2019/01/24 08:00 LFMU 240800Z AUTO 32013KT CAVOK 03/M05 Q1005 TEMPO 33020G30KT

 ♦     ♦     ♦     Nunca base decisiones importantes en estos datos u otros obtenidos de Internet     ♦     ♦     ♦